createdAt,value
2018-12-07T00:01:18.551Z,98048.48
2018-12-07T00:03:46.857Z,98043.42
2018-12-07T00:06:15.053Z,98043.30
2018-12-07T00:08:43.258Z,98049.76
2018-12-07T00:11:11.454Z,98056.87
2018-12-07T00:13:39.855Z,98046.78
2018-12-07T00:16:08.045Z,98042.25
2018-12-07T00:18:36.233Z,98058.23
2018-12-07T00:21:04.432Z,98055.16
2018-12-07T00:23:32.613Z,98053.86
2018-12-07T00:26:00.814Z,98044.42
2018-12-07T00:28:29.028Z,98048.19
2018-12-07T00:30:57.212Z,98053.02
2018-12-07T00:33:25.394Z,98049.95
2018-12-07T00:35:53.604Z,98046.03
2018-12-07T00:38:21.798Z,98046.47
2018-12-07T00:40:49.979Z,98039.61
2018-12-07T00:43:18.291Z,98037.00
2018-12-07T00:45:46.478Z,98035.75
2018-12-07T00:48:14.758Z,98038.08
2018-12-07T00:50:43.073Z,98038.04
2018-12-07T00:53:11.265Z,98026.41
2018-12-07T00:55:39.791Z,98027.20
2018-12-07T00:58:08.112Z,98024.95
2018-12-07T01:00:36.293Z,98031.53
2018-12-07T01:03:05.472Z,98034.72
2018-12-07T01:05:33.693Z,98025.11
2018-12-07T01:08:01.878Z,98020.41
2018-12-07T01:10:30.077Z,98022.38
2018-12-07T01:12:58.292Z,98031.62
2018-12-07T01:15:26.496Z,98023.58
2018-12-07T01:17:54.670Z,98013.74
2018-12-07T01:20:22.885Z,98005.66
2018-12-07T01:22:51.067Z,98005.02
2018-12-07T01:25:19.321Z,98017.19
2018-12-07T01:27:47.714Z,98016.50
2018-12-07T01:30:15.880Z,98011.19
2018-12-07T01:32:44.088Z,98013.95
2018-12-07T01:35:12.299Z,98009.73
2018-12-07T01:37:40.479Z,98007.97
2018-12-07T01:40:08.828Z,98010.22
2018-12-07T01:42:37.039Z,97999.45
2018-12-07T01:45:05.880Z,97993.85
2018-12-07T01:47:36.097Z,97995.25
2018-12-07T01:50:05.184Z,97995.02
2018-12-07T01:52:33.357Z,97994.30
2018-12-07T01:55:01.556Z,97997.44
2018-12-07T01:57:29.768Z,97998.84
2018-12-07T01:59:57.965Z,97993.25
2018-12-07T02:02:26.146Z,97989.71
2018-12-07T02:04:54.363Z,97982.48
2018-12-07T02:07:33.267Z,97988.07
2018-12-07T02:10:01.491Z,97984.73
2018-12-07T02:12:29.671Z,97986.63
2018-12-07T02:14:57.891Z,97984.05
2018-12-07T02:17:26.269Z,97985.33
2018-12-07T02:19:54.451Z,97987.66
2018-12-07T02:22:22.632Z,97986.00
2018-12-07T02:24:50.985Z,97981.94
2018-12-07T02:27:19.171Z,97981.17
2018-12-07T02:29:47.361Z,97979.52
2018-12-07T02:32:15.570Z,97976.47
2018-12-07T02:34:43.748Z,97964.29
2018-12-07T02:37:11.951Z,97963.02
2018-12-07T02:39:40.261Z,97957.59
2018-12-07T02:42:08.536Z,97957.47
2018-12-07T02:44:36.820Z,97954.88
2018-12-07T02:47:05.045Z,97946.61
2018-12-07T02:49:33.232Z,97940.71
2018-12-07T02:52:01.497Z,97931.30
2018-12-07T02:54:29.718Z,97933.19
2018-12-07T02:56:57.894Z,97933.08
2018-12-07T02:59:26.079Z,97934.64
2018-12-07T03:01:54.296Z,97938.39
2018-12-07T03:04:22.648Z,97934.15
2018-12-07T03:06:50.826Z,97916.22
2018-12-07T03:09:19.173Z,97921.05
2018-12-07T03:11:47.374Z,97921.13
2018-12-07T03:14:15.557Z,97925.20
2018-12-07T03:16:43.926Z,97921.56
2018-12-07T03:19:12.122Z,97924.52
2018-12-07T03:21:40.303Z,97917.45
2018-12-07T03:24:08.730Z,97914.38
2018-12-07T03:26:36.977Z,97901.59
2018-12-07T03:29:05.219Z,97901.11
2018-12-07T03:31:33.442Z,97902.94
2018-12-07T03:34:02.523Z,97910.86
2018-12-07T03:36:30.907Z,97907.96
2018-12-07T03:38:59.107Z,97912.92
2018-12-07T03:41:27.313Z,97907.13
2018-12-07T03:43:55.484Z,97907.12
2018-12-07T03:46:23.840Z,97912.03
2018-12-07T03:48:52.044Z,97904.73
2018-12-07T03:51:20.233Z,97909.55
2018-12-07T03:53:48.561Z,97903.17
2018-12-07T03:56:16.733Z,97909.92
2018-12-07T03:58:44.918Z,97905.27
2018-12-07T04:01:13.166Z,97904.20
2018-12-07T04:03:41.902Z,97897.45
2018-12-07T04:06:10.353Z,97894.95
2018-12-07T04:08:38.566Z,97888.19
2018-12-07T04:11:06.905Z,97896.86
2018-12-07T04:13:35.084Z,97897.51
2018-12-07T04:16:03.419Z,97893.66
2018-12-07T04:18:31.709Z,97893.09
2018-12-07T04:20:59.912Z,97897.62
2018-12-07T04:23:28.122Z,97892.95
2018-12-07T04:25:56.375Z,97894.67
2018-12-07T04:28:24.557Z,97889.20
2018-12-07T04:30:52.845Z,97887.23
2018-12-07T04:33:21.031Z,97874.80
2018-12-07T04:35:49.234Z,97879.29
2018-12-07T04:38:17.457Z,97877.81
2018-12-07T04:40:45.638Z,97870.79
2018-12-07T04:43:13.838Z,97869.14
2018-12-07T04:45:42.047Z,97870.73
2018-12-07T04:48:10.240Z,97874.13
2018-12-07T04:50:38.425Z,97866.52
2018-12-07T04:53:06.773Z,97867.11
2018-12-07T04:55:34.960Z,97874.11
2018-12-07T04:58:03.286Z,97871.95
2018-12-07T05:00:31.738Z,97862.78
2018-12-07T05:02:59.919Z,97863.02
2018-12-07T05:05:28.288Z,97860.23
2018-12-07T05:07:56.506Z,97861.45
2018-12-07T05:10:24.694Z,97851.33
2018-12-07T05:12:52.970Z,97849.41
2018-12-07T05:15:21.228Z,97844.19
2018-12-07T05:17:49.409Z,97844.52
2018-12-07T05:20:17.591Z,97843.24
2018-12-07T05:22:45.833Z,97850.73
2018-12-07T05:25:14.020Z,97844.27
2018-12-07T05:27:42.211Z,97844.57
2018-12-07T05:30:10.432Z,97845.64
2018-12-07T05:32:38.618Z,97849.46
2018-12-07T05:35:06.795Z,97845.34
2018-12-07T05:37:35.000Z,97846.19
2018-12-07T05:40:03.356Z,97838.53
2018-12-07T05:42:31.616Z,97841.59
2018-12-07T05:44:59.881Z,97841.77
2018-12-07T05:47:28.067Z,97833.92
2018-12-07T05:49:56.265Z,97834.60
2018-12-07T05:52:24.715Z,97842.22
2018-12-07T05:54:52.893Z,97836.94
2018-12-07T05:57:21.064Z,97835.94
2018-12-07T05:59:49.336Z,97832.24
2018-12-07T06:02:17.529Z,97829.41
2018-12-07T06:04:45.804Z,97829.13
2018-12-07T06:07:14.010Z,97824.62
2018-12-07T06:09:42.189Z,97823.78
2018-12-07T06:12:10.378Z,97821.91
2018-12-07T06:14:38.694Z,97821.11
2018-12-07T06:17:07.030Z,97816.38
2018-12-07T06:19:35.222Z,97813.27
2018-12-07T06:22:03.423Z,97807.61
2018-12-07T06:24:31.605Z,97795.73
2018-12-07T06:26:59.793Z,97799.54
2018-12-07T06:29:28.139Z,97792.73
2018-12-07T06:32:02.285Z,97791.75
2018-12-07T06:34:30.484Z,97787.42
2018-12-07T06:36:58.653Z,97788.53
2018-12-07T06:39:26.846Z,97787.91
2018-12-07T06:41:55.176Z,97791.05
2018-12-07T06:44:23.354Z,97783.99
2018-12-07T06:46:51.529Z,97782.37
2018-12-07T06:49:19.748Z,97772.81
2018-12-07T06:51:53.898Z,97776.94
2018-12-07T06:54:22.105Z,97777.52
2018-12-07T06:56:50.277Z,97776.45
2018-12-07T06:59:18.458Z,97776.23
2018-12-07T07:01:46.666Z,97777.53
2018-12-07T07:04:14.865Z,97779.92
2018-12-07T07:06:43.046Z,97777.64
2018-12-07T07:09:11.250Z,97765.56
2018-12-07T07:11:39.551Z,97769.50
2018-12-07T07:14:07.745Z,97770.29
2018-12-07T07:16:35.954Z,97772.72
2018-12-07T07:19:04.127Z,97772.48
2018-12-07T07:21:32.333Z,97771.95
2018-12-07T07:24:00.610Z,97764.59
2018-12-07T07:26:28.808Z,97772.89
2018-12-07T07:28:57.004Z,97770.38
2018-12-07T07:31:25.233Z,97769.05
2018-12-07T07:33:53.400Z,97758.30
2018-12-07T07:36:21.661Z,97756.59
2018-12-07T07:38:49.845Z,97761.36
2018-12-07T07:41:18.022Z,97749.78
2018-12-07T07:43:46.201Z,97750.03
2018-12-07T07:46:14.453Z,97743.66
2018-12-07T07:48:42.623Z,97740.08
2018-12-07T07:51:10.883Z,97732.41
2018-12-07T07:53:39.082Z,97735.91
2018-12-07T07:56:07.259Z,97733.92
2018-12-07T07:58:35.429Z,97733.78
2018-12-07T08:01:03.627Z,97725.47
2018-12-07T08:03:31.803Z,97725.87
2018-12-07T08:05:59.995Z,97718.78
2018-12-07T08:08:28.201Z,97723.27
2018-12-07T08:10:56.382Z,97718.36
2018-12-07T08:13:24.581Z,97712.62
2018-12-07T08:15:52.930Z,97711.69
2018-12-07T08:18:21.102Z,97703.05
2018-12-07T08:20:49.261Z,97705.08
2018-12-07T08:23:17.557Z,97707.77
2018-12-07T08:25:45.734Z,97707.61
2018-12-07T08:28:13.911Z,97699.11
2018-12-07T08:30:42.112Z,97694.50
2018-12-07T08:33:10.281Z,97691.21
2018-12-07T08:35:38.438Z,97689.53
2018-12-07T08:38:06.630Z,97683.16
2018-12-07T08:40:34.797Z,97680.69
2018-12-07T08:43:02.968Z,97676.20
2018-12-07T08:45:31.160Z,97682.05
2018-12-07T08:47:59.322Z,97676.12
2018-12-07T08:50:27.494Z,97674.67
2018-12-07T08:52:55.773Z,97677.80
2018-12-07T08:55:23.930Z,97677.69
2018-12-07T08:57:52.099Z,97669.84
2018-12-07T09:00:20.399Z,97670.36
2018-12-07T09:02:48.621Z,97666.62
2018-12-07T09:05:16.785Z,97657.92
2018-12-07T09:07:45.084Z,97658.41
2018-12-07T09:10:13.335Z,97656.22
2018-12-07T09:12:41.741Z,97655.14
2018-12-07T09:15:09.933Z,97655.73
2018-12-07T09:17:38.109Z,97654.48
2018-12-07T09:20:06.978Z,97648.78
2018-12-07T09:22:35.247Z,97640.30
2018-12-07T09:25:04.198Z,97637.77
2018-12-07T09:27:32.358Z,97631.94
2018-12-07T09:30:00.550Z,97631.08
2018-12-07T09:32:28.733Z,97630.43
2018-12-07T09:34:56.904Z,97626.89
2018-12-07T09:37:25.098Z,97628.82
2018-12-07T09:39:53.260Z,97626.49
2018-12-07T09:42:21.433Z,97620.36
2018-12-07T09:44:49.640Z,97619.98
2018-12-07T09:47:17.809Z,97614.72
2018-12-07T09:49:45.984Z,97609.30
2018-12-07T09:52:14.293Z,97617.17
2018-12-07T09:54:42.469Z,97603.98
2018-12-07T09:57:10.633Z,97601.75
2018-12-07T09:59:38.855Z,97595.28
2018-12-07T10:02:07.029Z,97595.05
2018-12-07T10:07:09.503Z,97583.91
2018-12-07T10:09:37.672Z,97582.34
2018-12-07T10:12:05.838Z,97578.20
2018-12-07T10:14:34.026Z,97575.71
2018-12-07T10:17:02.191Z,97570.82
2018-12-07T10:19:30.366Z,97568.23
2018-12-07T10:21:58.550Z,97558.20
2018-12-07T10:24:26.821Z,97556.64
2018-12-07T10:26:55.358Z,97551.70
2018-12-07T10:29:23.553Z,97544.61
2018-12-07T10:31:51.729Z,97538.49
2018-12-07T10:34:19.898Z,97528.69
2018-12-07T10:36:48.086Z,97524.31
2018-12-07T10:39:16.256Z,97524.41
2018-12-07T10:41:44.426Z,97518.09
2018-12-07T10:44:12.729Z,97510.14
2018-12-07T10:46:40.903Z,97507.67
2018-12-07T10:49:09.119Z,97495.41
2018-12-07T10:51:37.459Z,97491.39
2018-12-07T10:54:05.634Z,97485.30
2018-12-07T10:56:33.910Z,97478.36
2018-12-07T10:59:02.112Z,97473.27
2018-12-07T11:01:35.890Z,97468.08
2018-12-07T11:17:30.374Z,97444.65
2018-12-07T11:20:04.179Z,97433.15
2018-12-07T11:22:37.980Z,97427.83
2018-12-07T11:25:11.677Z,97420.23
2018-12-07T11:27:45.471Z,97414.98
2018-12-07T11:30:19.173Z,97409.05
2018-12-07T11:32:52.897Z,97406.91
2018-12-07T11:35:23.148Z,97403.28
2018-12-07T11:37:51.319Z,97400.09
2018-12-07T11:40:19.531Z,97396.30
2018-12-07T11:42:47.702Z,97388.38
2018-12-07T11:45:15.876Z,97381.61
2018-12-07T11:47:44.097Z,97373.63
2018-12-07T11:50:12.293Z,97373.23
2018-12-07T11:52:40.481Z,97372.45
2018-12-07T11:55:08.753Z,97364.88
2018-12-07T11:57:37.045Z,97362.09
2018-12-07T12:00:06.403Z,97351.96
2018-12-07T12:02:34.721Z,97353.38
2018-12-07T12:05:02.965Z,97349.36
2018-12-07T12:07:32.736Z,97346.88
2018-12-07T12:10:01.185Z,97343.99
2018-12-07T12:12:29.370Z,97344.46
2018-12-07T12:14:57.560Z,97345.48
2018-12-07T12:17:25.800Z,97336.50
2018-12-07T12:19:54.070Z,97328.58
2018-12-07T12:22:22.245Z,97331.20
2018-12-07T12:24:50.441Z,97327.95
2018-12-07T12:27:18.624Z,97315.87
2018-12-07T12:29:46.797Z,97312.72
2018-12-07T12:32:15.004Z,97313.47
2018-12-07T12:34:43.298Z,97307.44
2018-12-07T12:37:11.566Z,97307.09
2018-12-07T12:39:39.799Z,97301.16
2018-12-07T12:42:07.971Z,97297.51
2018-12-07T12:44:36.151Z,97293.75
2018-12-07T12:47:04.681Z,97291.79
2018-12-07T12:49:32.869Z,97282.77
2018-12-07T12:52:01.048Z,97278.52
2018-12-07T12:54:29.259Z,97276.39
2018-12-07T12:56:57.543Z,97278.42
2018-12-07T12:59:25.725Z,97274.72
2018-12-07T13:01:53.970Z,97271.94
2018-12-07T13:04:22.174Z,97267.69
2018-12-07T13:06:50.358Z,97290.10
2018-12-07T13:09:19.070Z,97283.88
2018-12-07T13:11:47.250Z,97286.28
2018-12-07T13:14:15.429Z,97280.22
2018-12-07T13:16:43.701Z,97275.13
2018-12-07T13:19:11.886Z,97277.34
2018-12-07T13:21:40.070Z,97269.20
2018-12-07T13:24:08.336Z,97268.34
2018-12-07T13:26:36.513Z,97259.64
2018-12-07T13:29:04.694Z,97254.27
2018-12-07T13:31:32.894Z,97243.67
2018-12-07T13:34:01.109Z,97247.61
2018-12-07T13:36:29.279Z,97241.41
2018-12-07T13:38:57.536Z,97246.22
2018-12-07T13:41:27.533Z,97240.06
2018-12-07T13:43:56.001Z,97237.71
2018-12-07T13:46:24.336Z,97230.23
2018-12-07T13:48:52.752Z,97224.09
2018-12-07T13:51:21.265Z,97219.89
2018-12-07T13:53:49.669Z,97218.47
2018-12-07T13:56:17.907Z,97218.82
2018-12-07T13:58:46.479Z,97215.41
2018-12-07T14:01:14.907Z,97212.66
2018-12-07T14:03:43.381Z,97212.44
2018-12-07T14:06:11.828Z,97211.64
2018-12-07T14:08:40.362Z,97209.42
2018-12-07T14:11:08.861Z,97207.30
2018-12-07T14:13:37.252Z,97208.58
2018-12-07T14:16:05.625Z,97208.28
2018-12-07T14:18:34.027Z,97203.86
2018-12-07T14:21:02.476Z,97205.56
2018-12-07T14:23:31.207Z,97199.11
2018-12-07T14:25:59.760Z,97203.70
2018-12-07T14:28:28.034Z,97204.30
2018-12-07T14:30:56.455Z,97203.92
2018-12-07T14:33:24.926Z,97205.75
2018-12-07T14:35:53.360Z,97197.38
2018-12-07T14:38:21.717Z,97193.69
2018-12-07T14:40:49.994Z,97201.00
2018-12-07T14:43:18.307Z,97195.20
2018-12-07T14:45:46.631Z,97185.91
2018-12-07T14:48:14.929Z,97185.95
2018-12-07T14:50:43.311Z,97182.61
2018-12-07T14:53:11.671Z,97179.92
2018-12-07T14:55:39.959Z,97180.34
2018-12-07T14:58:08.200Z,97174.13
2018-12-07T15:00:36.698Z,97166.95
2018-12-07T15:03:05.370Z,97161.11
2018-12-07T15:05:33.669Z,97149.75
2018-12-07T15:08:01.873Z,97153.45
2018-12-07T15:10:30.216Z,97153.02
2018-12-07T15:12:58.775Z,97148.95
2018-12-07T15:15:27.172Z,97148.66
2018-12-07T15:17:55.438Z,97141.91
2018-12-07T15:20:23.813Z,97134.70
2018-12-07T15:22:52.160Z,97129.70
2018-12-07T15:25:20.463Z,97124.55
2018-12-07T15:27:49.275Z,97118.09
2018-12-07T15:30:17.563Z,97109.95
2018-12-07T15:32:45.899Z,97105.42
2018-12-07T15:35:14.305Z,97106.70
2018-12-07T15:37:42.627Z,97111.92
2018-12-07T15:40:10.907Z,97115.67
2018-12-07T15:42:39.907Z,97119.91
2018-12-07T15:45:08.602Z,97119.44
2018-12-07T15:47:36.807Z,97117.11
2018-12-07T15:50:06.142Z,97112.33
2018-12-07T15:52:34.835Z,97101.36
2018-12-07T15:55:03.489Z,97093.23
2018-12-07T15:57:31.992Z,97090.08
2018-12-07T16:00:00.252Z,97094.05
2018-12-07T16:02:28.847Z,97091.56
2018-12-07T16:04:57.209Z,97085.62
2018-12-07T16:07:25.506Z,97082.41
2018-12-07T16:09:53.823Z,97078.31
2018-12-07T16:12:22.239Z,97068.36
2018-12-07T16:14:50.595Z,97066.50
2018-12-07T16:17:18.904Z,97055.86
2018-12-07T16:19:47.199Z,97047.22
2018-12-07T16:22:15.597Z,97035.27
2018-12-07T16:24:44.087Z,97040.95
2018-12-07T16:27:12.394Z,97033.44
2018-12-07T16:29:40.697Z,97034.55
2018-12-07T16:32:08.943Z,97030.92
2018-12-07T16:34:37.373Z,97025.59
2018-12-07T16:37:05.704Z,97024.47
2018-12-07T16:39:34.051Z,97029.03
2018-12-07T16:42:02.286Z,97015.36
2018-12-07T16:44:30.712Z,96999.31
2018-12-07T16:46:58.939Z,96994.33
2018-12-07T16:49:27.245Z,96987.69
2018-12-07T16:51:55.853Z,96980.75
2018-12-07T16:54:24.294Z,96977.01
2018-12-07T16:56:52.677Z,96971.14
2018-12-07T16:59:21.028Z,96972.39
2018-12-07T17:01:49.415Z,96967.83
2018-12-07T17:04:17.783Z,96966.48
2018-12-07T17:06:46.259Z,96957.36
2018-12-07T17:09:14.550Z,96952.94
2018-12-07T17:11:42.949Z,96954.71
2018-12-07T17:14:11.382Z,96955.00
2018-12-07T17:16:39.893Z,96952.89
2018-12-07T17:19:08.197Z,96946.48
2018-12-07T17:21:36.603Z,96951.77
2018-12-07T17:24:05.132Z,96941.46
2018-12-07T17:26:33.608Z,96938.83
2018-12-07T17:29:03.154Z,96930.16
2018-12-07T17:31:31.378Z,96930.34
2018-12-07T17:33:59.888Z,96914.81
2018-12-07T17:36:28.253Z,96898.59
2018-12-07T17:38:56.504Z,96894.40
2018-12-07T17:41:24.799Z,96883.93
2018-12-07T17:43:53.327Z,96886.42
2018-12-07T17:46:21.825Z,96886.08
2018-12-07T17:48:50.879Z,96882.62
2018-12-07T17:51:19.226Z,96877.28
2018-12-07T17:53:47.392Z,96875.30
2018-12-07T17:56:15.891Z,96867.19
2018-12-07T17:58:44.312Z,96862.01
2018-12-07T18:01:12.669Z,96848.83
2018-12-07T18:03:40.869Z,96844.19
2018-12-07T18:06:09.319Z,96829.45
2018-12-07T18:08:37.827Z,96824.02
2018-12-07T18:11:06.351Z,96820.22
2018-12-07T18:13:34.893Z,96829.11
2018-12-07T18:16:03.118Z,96821.76
2018-12-07T18:18:31.392Z,96828.45
2018-12-07T18:20:59.597Z,96838.73
2018-12-07T18:23:27.876Z,96848.80
2018-12-07T18:25:56.178Z,96843.77
2018-12-07T18:28:24.552Z,96841.89
2018-12-07T18:30:52.869Z,96840.45
2018-12-07T18:33:21.299Z,96833.06
2018-12-07T18:35:49.839Z,96834.82
2018-12-07T18:38:18.236Z,96833.30
2018-12-07T18:40:46.588Z,96834.34
2018-12-07T18:43:14.968Z,96821.98
2018-12-07T18:45:43.349Z,96811.73
2018-12-07T18:48:12.088Z,96806.19
2018-12-07T18:50:40.795Z,96797.22
2018-12-07T18:53:09.275Z,96796.38
2018-12-07T18:55:37.557Z,96801.61
2018-12-07T18:58:06.039Z,96804.70
2018-12-07T19:00:34.353Z,96796.85
2018-12-07T19:03:02.692Z,96787.67
2018-12-07T19:05:31.234Z,96772.77
2018-12-07T19:07:59.669Z,96760.52
2018-12-07T19:10:28.169Z,96757.86
2018-12-07T19:12:56.458Z,96750.23
2018-12-07T19:15:24.804Z,96739.73
2018-12-07T19:17:53.186Z,96731.47
2018-12-07T19:20:21.848Z,96727.22
2018-12-07T19:22:50.389Z,96714.97
2018-12-07T19:25:19.513Z,96716.47
2018-12-07T19:27:48.142Z,96706.88
2018-12-07T19:30:16.589Z,96711.17
2018-12-07T19:32:44.928Z,96697.86
2018-12-07T19:35:13.648Z,96708.64
2018-12-07T19:37:42.123Z,96701.63
2018-12-07T19:40:10.330Z,96693.90
2018-12-07T19:42:38.519Z,96686.91
2018-12-07T19:45:08.905Z,96686.18
2018-12-07T19:47:37.181Z,96679.37
2018-12-07T19:50:07.356Z,96665.45
2018-12-07T19:52:35.669Z,96651.69
2018-12-07T19:55:05.367Z,96656.27
2018-12-07T19:57:33.834Z,96648.19
2018-12-07T20:00:02.121Z,96635.73
2018-12-07T20:02:30.682Z,96639.25
2018-12-07T20:04:58.878Z,96633.45
2018-12-07T20:07:27.227Z,96637.47
2018-12-07T20:09:55.687Z,96630.84
2018-12-07T20:12:24.037Z,96620.31
2018-12-07T20:14:52.236Z,96609.66
2018-12-07T20:17:20.427Z,96605.73
2018-12-07T20:19:48.668Z,96616.31
2018-12-07T20:22:16.958Z,96615.77
2018-12-07T20:24:45.244Z,96615.73
2018-12-07T20:27:14.292Z,96614.66
2018-12-07T20:29:42.851Z,96609.13
2018-12-07T20:32:11.188Z,96600.92
2018-12-07T20:34:39.400Z,96601.58
2018-12-07T20:37:08.197Z,96593.27
2018-12-07T20:39:36.706Z,96595.35
2018-12-07T20:42:05.047Z,96586.16
2018-12-07T20:44:33.232Z,96572.28
2018-12-07T20:47:01.505Z,96562.37
2018-12-07T20:49:29.933Z,96567.92
2018-12-07T20:51:58.358Z,96576.76
2018-12-07T20:54:27.659Z,96590.52
2018-12-07T20:56:55.874Z,96592.14
2018-12-07T20:59:24.154Z,96601.23
2018-12-07T21:01:52.426Z,96603.05
2018-12-07T21:04:32.060Z,96592.39
2018-12-07T21:14:02.857Z,96581.38
2018-12-07T21:19:47.796Z,96583.09
2018-12-07T21:22:16.217Z,96574.73
2018-12-07T21:24:44.743Z,96565.34
2018-12-07T21:27:13.283Z,96564.67
2018-12-07T21:29:41.833Z,96565.08
2018-12-07T21:32:15.397Z,96557.36
2018-12-07T21:35:00.007Z,96554.88
2018-12-07T21:37:28.562Z,96546.83
2018-12-07T21:40:03.038Z,96539.61
2018-12-07T21:42:31.328Z,96531.75
2018-12-07T21:44:59.523Z,96530.89
2018-12-07T21:47:51.766Z,96521.92
2018-12-07T21:50:20.272Z,96520.13
2018-12-07T21:52:48.786Z,96517.24
2018-12-07T21:55:17.209Z,96511.84
2018-12-07T21:57:45.676Z,96510.64
2018-12-07T22:00:14.138Z,96516.77
2018-12-07T22:02:42.420Z,96522.47
2018-12-07T22:05:10.875Z,96513.48
2018-12-07T22:07:39.395Z,96509.39
2018-12-07T22:10:07.839Z,96515.16
2018-12-07T22:12:36.499Z,96518.41
2018-12-07T22:15:05.555Z,96511.93
2018-12-07T22:17:34.563Z,96517.67
2018-12-07T22:20:03.330Z,96521.95
2018-12-07T22:22:31.777Z,96518.87
2018-12-07T22:25:00.523Z,96515.25
2018-12-07T22:27:28.763Z,96510.97
2018-12-07T22:29:57.109Z,96515.92
2018-12-07T22:32:25.554Z,96512.05
2018-12-07T22:34:54.030Z,96509.72
2018-12-07T22:37:22.457Z,96498.35
2018-12-07T22:39:50.957Z,96494.55
2018-12-07T22:42:19.479Z,96488.26
2018-12-07T22:44:47.833Z,96494.17
2018-12-07T22:47:16.188Z,96511.67
2018-12-07T22:49:44.671Z,96511.11
2018-12-07T22:52:12.886Z,96505.97
2018-12-07T22:54:41.089Z,96508.23
2018-12-07T22:57:09.262Z,96504.63
2018-12-07T22:59:37.424Z,96514.86
2018-12-07T23:02:05.745Z,96525.42
2018-12-07T23:04:33.925Z,96518.94
2018-12-07T23:07:02.124Z,96525.98
2018-12-07T23:09:30.861Z,96531.89
2018-12-07T23:11:59.034Z,96528.98
2018-12-07T23:14:27.240Z,96537.64
2018-12-07T23:16:55.434Z,96536.23
2018-12-07T23:19:23.637Z,96526.63
2018-12-07T23:21:51.934Z,96521.22
2018-12-07T23:24:20.145Z,96522.52
2018-12-07T23:26:48.343Z,96526.42
2018-12-07T23:29:21.281Z,96542.58
2018-12-07T23:31:49.445Z,96538.20
2018-12-07T23:34:17.613Z,96536.27
2018-12-07T23:36:45.798Z,96536.72
2018-12-07T23:39:13.970Z,96543.52
2018-12-07T23:41:42.182Z,96545.84
2018-12-07T23:44:10.368Z,96551.80
2018-12-07T23:46:38.550Z,96545.31
2018-12-07T23:49:06.722Z,96550.67
2018-12-07T23:51:35.767Z,96560.20
2018-12-07T23:54:04.094Z,96563.56
2018-12-07T23:56:32.268Z,96558.70
2018-12-07T23:59:00.464Z,96568.64
